Time;durP1;ratioP1;P1;durP2;ratioP2;P2;SDS_P1;SDS_P2;PMS_P1;PMS_P2;Temp;Humidity;BMP_temperature;BMP_pressure;BME280_temperature;BME280_humidity;BME280_pressure;Samples;Min_cycle;Max_cycle;Signal;HPM_P1;HPM_P2
2022/09/12 00:01:26;;;;;;;5.57;2.73;;;;;;;13.35;100.00;101252.38;5053714;28;20462;-69
2022/09/12 00:03:54;;;;;;;5.20;2.20;;;;;;;13.38;100.00;101254.50;5053243;28;20437;-68
2022/09/12 00:06:23;;;;;;;4.30;1.73;;;;;;;13.41;100.00;101244.88;5053370;28;20581;-68
2022/09/12 00:08:50;;;;;;;4.53;1.90;;;;;;;13.32;100.00;101253.75;5053677;28;20442;-69
2022/09/12 00:11:16;;;;;;;4.20;2.27;;;;;;;13.28;100.00;101251.94;5053270;28;20860;-68
2022/09/12 00:13:43;;;;;;;5.07;2.20;;;;;;;13.20;100.00;101248.00;5053646;28;20442;-68
2022/09/12 00:16:16;;;;;;;6.27;2.10;;;;;;;13.23;100.00;101241.16;5053386;28;20441;-68
2022/09/12 00:18:44;;;;;;;3.80;1.50;;;;;;;13.23;100.00;101247.41;5053309;28;20919;-68
2022/09/12 00:21:11;;;;;;;4.17;1.73;;;;;;;13.10;100.00;101237.31;5053607;28;20501;-69
2022/09/12 00:23:37;;;;;;;4.87;2.00;;;;;;;12.99;100.00;101241.34;5053657;28;20438;-68
2022/09/12 00:26:06;;;;;;;5.60;2.13;;;;;;;13.06;100.00;101242.56;5053132;28;21014;-69
2022/09/12 00:28:35;;;;;;;4.27;1.77;;;;;;;13.03;100.00;101247.81;5053384;28;20488;-69
2022/09/12 00:31:05;;;;;;;4.57;2.00;;;;;;;13.03;100.00;101248.59;5053447;28;20550;-69
2022/09/12 00:33:33;;;;;;;4.60;1.70;;;;;;;12.98;100.00;101240.53;5053506;28;20433;-68
2022/09/12 00:35:59;;;;;;;5.07;2.00;;;;;;;12.94;100.00;101242.25;5053019;28;20993;-69
2022/09/12 00:38:26;;;;;;;4.60;1.93;;;;;;;12.86;100.00;101242.94;5053343;28;20828;-69
2022/09/12 00:40:52;;;;;;;4.23;1.30;;;;;;;12.79;100.00;101234.34;5053197;28;20466;-69
2022/09/12 00:43:39;;;;;;;4.40;1.90;;;;;;;12.80;100.00;101241.44;5053450;28;20516;-68
2022/09/12 00:46:13;;;;;;;4.50;1.77;;;;;;;12.77;100.00;101240.09;5053104;28;20470;-68
2022/09/12 00:48:44;;;;;;;4.73;1.70;;;;;;;12.49;100.00;101243.88;5053325;28;20424;-69
2022/09/12 00:51:11;;;;;;;5.27;1.80;;;;;;;12.35;100.00;101233.78;5053180;28;20462;-67
2022/09/12 00:53:39;;;;;;;6.97;2.20;;;;;;;12.55;100.00;101237.25;5053203;28;20447;-68
2022/09/12 00:56:06;;;;;;;6.63;2.07;;;;;;;12.60;100.00;101232.50;5052889;28;20974;-69
2022/09/12 00:58:38;;;;;;;4.37;1.60;;;;;;;12.60;100.00;101237.16;5053148;28;20458;-68
2022/09/12 01:01:06;;;;;;;3.90;1.67;;;;;;;12.53;100.00;101236.75;5053209;28;20463;-69
2022/09/12 01:03:32;;;;;;;5.03;1.90;;;;;;;12.27;100.00;101237.16;5052809;28;20834;-68
2022/09/12 01:06:07;;;;;;;4.43;1.80;;;;;;;12.13;100.00;101233.59;5052764;28;21074;-69
2022/09/12 01:08:36;;;;;;;4.73;1.77;;;;;;;12.24;100.00;101236.94;5052889;28;20933;-69
2022/09/12 01:11:03;;;;;;;4.60;1.67;;;;;;;12.34;100.00;101239.47;5052734;28;20536;-69
2022/09/12 01:13:30;;;;;;;4.80;1.90;;;;;;;12.30;100.00;101236.53;5052801;28;20787;-69
2022/09/12 01:15:56;;;;;;;4.17;1.50;;;;;;;12.24;100.00;101229.59;5056212;28;20500;-68
2022/09/12 01:18:31;;;;;;;4.87;2.00;;;;;;;12.30;100.00;101228.38;5056817;28;20438;-69
2022/09/12 01:21:19;;;;;;;4.80;2.03;;;;;;;12.18;100.00;101229.97;5056929;28;20520;-69
2022/09/12 01:24:06;;;;;;;4.27;1.40;;;;;;;12.12;100.00;101234.66;5056851;28;20422;-69
2022/09/12 01:27:03;;;;;;;3.90;1.53;;;;;;;12.00;100.00;101228.91;5056732;28;20473;-69
2022/09/12 01:29:55;;;;;;;4.33;1.67;;;;;;;11.93;100.00;101233.88;5056602;28;20425;-69
2022/09/12 01:32:34;;;;;;;4.33;1.73;;;;;;;12.10;100.00;101229.53;5054104;28;21050;-70
2022/09/12 01:35:08;;;;;;;5.33;1.70;;;;;;;12.10;100.00;101234.16;5056539;28;20441;-69
2022/09/12 01:37:43;;;;;;;4.07;1.47;;;;;;;12.09;100.00;101227.94;5056614;28;20480;-69
2022/09/12 01:40:15;;;;;;;4.00;1.70;;;;;;;12.07;100.00;101229.31;5056402;28;20528;-69
2022/09/12 01:42:45;;;;;;;4.67;1.83;;;;;;;12.10;100.00;101226.03;5056480;28;20426;-68
2022/09/12 01:45:18;;;;;;;5.83;2.13;;;;;;;12.15;100.00;101220.50;5056334;28;20469;-69
2022/09/12 01:47:50;;;;;;;4.13;1.70;;;;;;;12.09;100.00;101227.94;5056208;28;20430;-68
2022/09/12 01:50:20;;;;;;;4.57;1.67;;;;;;;12.11;100.00;101222.19;5056288;28;20481;-69
2022/09/12 01:52:52;;;;;;;3.57;1.50;;;;;;;12.09;100.00;101217.06;5055963;28;20438;-69
2022/09/12 01:55:22;;;;;;;4.70;1.97;;;;;;;12.09;100.00;101219.78;5055840;28;20903;-69
2022/09/12 01:57:53;;;;;;;4.13;1.70;;;;;;;11.99;100.00;101217.19;5056224;28;20473;-68
2022/09/12 02:00:20;;;;;;;5.20;2.27;;;;;;;11.95;100.00;101221.59;5056080;28;20484;-69
2022/09/12 02:02:52;;;;;;;3.90;1.30;;;;;;;11.93;100.00;101225.72;5056219;28;20498;-68
2022/09/12 02:05:25;;;;;;;6.57;1.80;;;;;;;11.93;100.00;101228.44;5056042;28;20485;-68
2022/09/12 02:07:55;;;;;;;4.40;1.70;;;;;;;11.78;100.00;101221.31;5056000;28;20435;-68
2022/09/12 02:10:25;;;;;;;4.13;1.60;;;;;;;11.76;100.00;101223.50;5055418;28;20481;-69
2022/09/12 02:12:55;;;;;;;7.10;2.70;;;;;;;11.69;100.00;101225.78;5055800;28;20442;-68
2022/09/12 02:15:25;;;;;;;4.50;1.50;;;;;;;11.76;100.00;101226.22;5055733;28;20476;-68
2022/09/12 02:17:57;;;;;;;5.23;2.00;;;;;;;11.74;100.00;101228.44;5055794;28;20742;-68
2022/09/12 02:20:26;;;;;;;4.73;1.53;;;;;;;11.68;100.00;101224.94;5055750;28;20462;-68
2022/09/12 02:22:54;;;;;;;5.50;1.60;;;;;;;11.77;100.00;101228.63;5055684;28;20450;-68
2022/09/12 02:25:23;;;;;;;4.70;1.80;;;;;;;11.75;100.00;101221.88;5055134;28;20869;-69
2022/09/12 02:27:54;;;;;;;19.63;1.60;;;;;;;11.55;100.00;101225.66;5055008;28;20446;-68
2022/09/12 02:30:22;;;;;;;5.50;1.53;;;;;;;11.65;100.00;101225.56;5055142;28;21006;-68
2022/09/12 02:33:00;;;;;;;4.70;1.67;;;;;;;11.57;100.00;101229.72;5055449;28;20453;-68
2022/09/12 02:35:38;;;;;;;4.80;1.80;;;;;;;11.35;100.00;101224.03;5055415;28;20426;-68
2022/09/12 02:38:09;;;;;;;4.97;1.57;;;;;;;11.44;100.00;101219.59;5055568;28;20453;-68
2022/09/12 02:40:36;;;;;;;4.77;1.80;;;;;;;11.60;100.00;101225.63;5055261;28;20459;-68
2022/09/12 02:43:05;;;;;;;4.10;1.80;;;;;;;11.50;100.00;101223.03;5055206;28;20495;-69
2022/09/12 02:45:33;;;;;;;4.83;1.50;;;;;;;11.52;100.00;101218.94;5055008;28;20547;-69
2022/09/12 02:48:07;;;;;;;6.13;1.63;;;;;;;11.48;100.00;101222.53;5055123;28;20474;-68
2022/09/12 02:50:34;;;;;;;4.13;1.60;;;;;;;11.36;100.00;101220.22;5055061;28;20887;-69
2022/09/12 02:53:03;;;;;;;4.20;1.73;;;;;;;11.19;100.00;101231.53;5054989;28;20450;-68
2022/09/12 02:55:31;;;;;;;4.63;1.60;;;;;;;11.21;100.00;101231.28;5054576;28;20957;-68
2022/09/12 02:57:58;;;;;;;4.53;1.30;;;;;;;11.22;100.00;101230.97;5055304;28;20434;-70
2022/09/12 03:00:25;;;;;;;3.93;1.57;;;;;;;11.29;100.00;101220.59;5054780;28;20466;-69
2022/09/12 03:03:11;;;;;;;4.80;2.00;;;;;;;11.28;100.00;101224.38;5055013;28;20492;-69
2022/09/12 03:05:46;;;;;;;5.27;2.00;;;;;;;11.35;100.00;101222.13;5054783;28;20470;-70
2022/09/12 03:08:24;;;;;;;5.53;1.60;;;;;;;11.33;100.00;101226.22;5054765;28;20430;-71
2022/09/12 03:11:09;;;;;;;4.30;1.60;;;;;;;11.41;100.00;101230.19;5073819;22;20481;-72
2022/09/12 03:13:43;;;;;;;4.57;1.90;;;;;;;11.44;100.00;101224.22;5074694;28;20447;-72
2022/09/12 03:16:20;;;;;;;4.93;2.20;;;;;;;11.44;100.00;101221.50;5074368;28;20903;-73
2022/09/12 03:18:55;;;;;;;4.20;1.80;;;;;;;11.22;100.00;101222.84;5074584;28;20429;-71
2022/09/12 03:21:27;;;;;;;3.87;1.37;;;;;;;11.16;100.00;101224.00;5074540;28;20464;-73
2022/09/12 03:24:06;;;;;;;3.90;1.60;;;;;;;11.14;100.00;101222.66;5074176;28;20436;-71
2022/09/12 03:26:39;;;;;;;3.80;1.50;;;;;;;11.18;100.00;101212.84;5074223;28;20823;-72
2022/09/12 03:29:08;;;;;;;5.90;2.00;;;;;;;11.20;100.00;101216.06;5074343;28;20429;-71
2022/09/12 03:31:34;;;;;;;4.20;1.93;;;;;;;11.18;100.00;101215.56;5073838;28;20445;-72
2022/09/12 03:34:02;;;;;;;5.70;2.20;;;;;;;11.25;100.00;101216.84;5074113;28;20447;-71
2022/09/12 03:36:30;;;;;;;4.30;1.30;;;;;;;11.18;100.00;101218.28;5073788;28;20817;-71
2022/09/12 03:38:57;;;;;;;3.93;1.50;;;;;;;11.24;100.00;101222.53;5073212;28;20445;-71
2022/09/12 03:41:23;;;;;;;5.83;2.33;;;;;;;11.13;100.00;101227.28;5073805;28;20879;-71
2022/09/12 03:43:50;;;;;;;4.60;1.60;;;;;;;11.08;100.00;101230.06;5074315;28;20441;-71
2022/09/12 03:46:16;;;;;;;4.13;1.53;;;;;;;11.03;100.00;101225.50;5073841;28;20477;-71
2022/09/12 03:48:43;;;;;;;4.00;1.40;;;;;;;11.04;100.00;101229.81;5073961;28;20448;-71
2022/09/12 03:51:11;;;;;;;5.20;2.10;;;;;;;11.01;100.00;101232.28;5073847;28;20469;-73
2022/09/12 03:53:38;;;;;;;4.20;1.53;;;;;;;10.91;100.00;101230.50;5073905;28;20450;-71
2022/09/12 03:56:07;;;;;;;12.37;1.87;;;;;;;10.77;100.00;101238.50;5074077;28;20495;-71
2022/09/12 03:58:35;;;;;;;5.40;2.00;;;;;;;10.82;100.00;101243.06;5073853;28;20813;-71
2022/09/12 04:01:05;;;;;;;6.33;2.03;;;;;;;10.97;100.00;101233.97;5073977;28;20515;-71
2022/09/12 04:03:32;;;;;;;5.37;2.00;;;;;;;10.99;100.00;101226.38;5073800;28;20479;-72
2022/09/12 04:05:58;;;;;;;5.13;1.73;;;;;;;10.94;100.00;101237.28;5074387;28;20477;-77
2022/09/12 04:08:27;;;;;;;5.00;2.20;;;;;;;10.98;100.00;101235.56;5076344;28;20495;-77
2022/09/12 04:10:54;;;;;;;4.20;1.60;;;;;;;11.00;100.00;101233.41;5073693;28;20473;-73
2022/09/12 04:13:20;;;;;;;4.00;1.60;;;;;;;10.92;100.00;101226.69;5073539;28;20460;-71
2022/09/12 04:15:56;;;;;;;7.30;2.07;;;;;;;10.90;100.00;101231.59;5073153;28;20942;-68
2022/09/12 04:18:22;;;;;;;4.57;1.90;;;;;;;10.85;100.00;101228.94;5073464;28;20770;-72
2022/09/12 04:20:48;;;;;;;4.20;1.73;;;;;;;10.84;100.00;101230.03;5073377;28;20466;-71
2022/09/12 04:23:15;;;;;;;5.40;2.20;;;;;;;10.78;100.00;101231.19;5073158;28;20483;-72
2022/09/12 04:25:42;;;;;;;5.57;2.00;;;;;;;10.68;100.00;101234.81;5073493;28;20444;-71
2022/09/12 04:28:09;;;;;;;4.80;2.00;;;;;;;10.72;100.00;101238.56;5073473;28;20444;-72
2022/09/12 04:30:35;;;;;;;5.77;1.87;;;;;;;10.62;100.00;101246.75;5073291;28;20445;-71
2022/09/12 04:33:02;;;;;;;4.03;1.60;;;;;;;10.61;100.00;101237.03;5073390;28;20442;-71
2022/09/12 04:35:28;;;;;;;6.30;2.70;;;;;;;10.59;100.00;101239.22;5073262;28;20476;-69
2022/09/12 04:37:54;;;;;;;6.03;1.87;;;;;;;10.65;100.00;101229.94;5073247;28;20495;-69
2022/09/12 04:40:21;;;;;;;4.80;2.17;;;;;;;10.75;100.00;101232.53;5073514;28;20445;-69
2022/09/12 04:42:49;;;;;;;5.67;2.17;;;;;;;10.77;100.00;101230.38;5073182;28;20445;-69
2022/09/12 04:45:15;;;;;;;6.03;1.83;;;;;;;10.75;100.00;101232.53;5073247;28;20449;-69
2022/09/12 04:47:42;;;;;;;5.07;2.13;;;;;;;10.66;100.00;101231.56;5073148;28;20492;-69
2022/09/12 04:50:09;;;;;;;5.03;1.93;;;;;;;10.63;100.00;101229.44;5076837;28;20445;-71
2022/09/12 04:52:35;;;;;;;5.80;2.20;;;;;;;10.46;100.00;101223.63;5079785;28;20463;-70
2022/09/12 04:55:01;;;;;;;5.43;2.20;;;;;;;10.52;100.00;101233.31;5079526;28;20444;-70
2022/09/12 04:57:28;;;;;;;4.63;2.03;;;;;;;10.52;100.00;101236.81;5079753;28;20857;-70
2022/09/12 04:59:55;;;;;;;7.20;2.70;;;;;;;10.52;100.00;101236.03;5079833;28;20448;-71
2022/09/12 05:02:22;;;;;;;4.53;2.00;;;;;;;10.43;100.00;101235.03;5079706;28;20461;-70
2022/09/12 05:04:48;;;;;;;5.80;2.27;;;;;;;10.49;100.00;101233.88;5079662;28;20448;-70
2022/09/12 05:07:15;;;;;;;6.93;2.20;;;;;;;10.57;100.00;101235.97;5079519;28;20491;-70
2022/09/12 05:09:41;;;;;;;4.23;1.73;;;;;;;10.60;100.00;101240.84;5079380;28;20937;-72
2022/09/12 05:12:08;;;;;;;5.87;2.20;;;;;;;10.56;100.00;101239.78;5079286;28;20480;-69
2022/09/12 05:14:34;;;;;;;6.60;3.03;;;;;;;10.60;100.00;101232.72;5079807;28;20521;-70
2022/09/12 05:17:03;;;;;;;13.43;2.57;;;;;;;10.54;100.00;101233.84;5079604;28;20441;-70
2022/09/12 05:19:30;;;;;;;5.73;2.20;;;;;;;10.71;100.00;101233.41;5079181;28;20837;-70
2022/09/12 05:21:57;;;;;;;4.80;2.10;;;;;;;10.62;100.00;101233.22;5079493;28;20465;-69
2022/09/12 05:24:24;;;;;;;4.10;1.57;;;;;;;10.62;100.00;101238.63;5079551;28;20443;-70
2022/09/12 05:26:50;;;;;;;7.33;2.70;;;;;;;10.63;100.00;101242.97;5079343;28;20890;-69
2022/09/12 05:29:17;;;;;;;5.90;2.57;;;;;;;10.52;100.00;101239.53;5079508;28;20445;-69
2022/09/12 05:31:43;;;;;;;4.60;2.20;;;;;;;10.51;100.00;101237.94;5079447;28;20552;-69
2022/09/12 05:34:11;;;;;;;5.60;2.50;;;;;;;10.72;100.00;101241.28;5079431;28;20445;-70
2022/09/12 05:36:38;;;;;;;4.80;2.20;;;;;;;10.81;100.00;101236.84;5079360;28;20463;-71
2022/09/12 05:39:04;;;;;;;5.33;2.30;;;;;;;10.94;100.00;101242.69;5079355;28;20812;-70
2022/09/12 05:41:34;;;;;;;5.37;2.40;;;;;;;10.99;100.00;101243.44;5079438;28;20460;-71
2022/09/12 05:44:02;;;;;;;5.80;2.30;;;;;;;10.92;100.00;101242.16;5079251;28;20447;-69
2022/09/12 05:46:30;;;;;;;7.43;3.23;;;;;;;11.09;100.00;101247.94;5079220;28;20488;-70
2022/09/12 05:48:57;;;;;;;4.70;2.03;;;;;;;11.16;100.00;101237.56;5078952;28;20816;-69
2022/09/12 05:51:27;;;;;;;8.80;2.03;;;;;;;11.21;100.00;101251.06;5079182;28;20554;-70
2022/09/12 05:53:55;;;;;;;5.93;2.80;;;;;;;11.30;100.00;101252.03;5079245;28;20444;-69
2022/09/12 05:56:24;;;;;;;5.77;2.80;;;;;;;11.32;100.00;101263.38;5079146;28;20817;-69
2022/09/12 05:58:54;;;;;;;5.23;2.77;;;;;;;11.41;100.00;101254.63;5079224;28;20452;-69
2022/09/12 06:01:20;;;;;;;6.70;3.00;;;;;;;11.52;100.00;101264.25;5076888;28;20464;-69
2022/09/12 06:03:49;;;;;;;5.77;2.70;;;;;;;11.68;100.00;101267.56;5075952;28;20441;-69
2022/09/12 06:06:18;;;;;;;4.97;2.60;;;;;;;11.69;100.00;101267.28;5075525;28;20452;-69
2022/09/12 06:08:49;;;;;;;6.50;3.00;;;;;;;11.84;100.00;101271.72;5075920;28;20445;-69
2022/09/12 06:11:20;;;;;;;9.10;3.53;;;;;;;11.99;100.00;101273.41;5075526;28;20480;-70
2022/09/12 06:13:46;;;;;;;7.40;3.17;;;;;;;12.00;100.00;101275.06;5075899;28;20895;-69
2022/09/12 06:16:14;;;;;;;6.17;3.20;;;;;;;12.13;100.00;101266.19;5075498;28;20969;-72
2022/09/12 06:18:41;;;;;;;9.90;2.83;;;;;;;12.27;100.00;101269.75;5075822;28;20491;-70
2022/09/12 06:21:10;;;;;;;7.57;3.60;;;;;;;12.40;100.00;101281.78;5075167;28;20457;-70
2022/09/12 06:23:37;;;;;;;14.50;4.00;;;;;;;12.50;100.00;101283.53;5075575;28;20438;-71
2022/09/12 06:26:06;;;;;;;9.53;4.33;;;;;;;12.67;100.00;101291.13;5075646;28;20475;-70
2022/09/12 06:28:36;;;;;;;8.63;4.33;;;;;;;12.81;100.00;101292.78;5075402;28;20546;-70
2022/09/12 06:31:04;;;;;;;8.17;4.07;;;;;;;12.94;100.00;101290.38;5075529;28;20472;-70
2022/09/12 06:33:31;;;;;;;8.47;4.03;;;;;;;13.08;100.00;101292.00;5075179;28;20926;-70
2022/09/12 06:36:03;;;;;;;7.47;4.10;;;;;;;13.15;100.00;101294.34;5075373;28;20503;-70
2022/09/12 06:38:29;;;;;;;8.37;3.80;;;;;;;13.25;100.00;101286.03;5075116;28;20418;-71
2022/09/12 06:40:57;;;;;;;10.13;4.23;;;;;;;13.35;100.00;101283.09;5075228;28;20465;-71
2022/09/12 06:43:24;;;;;;;7.87;3.43;;;;;;;13.46;100.00;101291.06;5075321;28;20445;-70
2022/09/12 06:45:51;;;;;;;10.50;5.17;;;;;;;13.56;100.00;101288.16;5075375;28;20441;-69
2022/09/12 06:48:18;;;;;;;9.13;4.70;;;;;;;13.61;100.00;101291.56;5075586;28;20864;-76
2022/09/12 06:50:55;;;;;;;10.63;5.70;;;;;;;13.69;100.00;101298.22;5076210;28;20465;-68
2022/09/12 06:53:21;;;;;;;9.27;5.10;;;;;;;13.76;100.00;101295.06;5075209;28;20432;-72
2022/09/12 06:55:55;;;;;;;8.30;4.10;;;;;;;13.87;100.00;101289.09;5074771;28;20934;-71
2022/09/12 06:58:21;;;;;;;7.13;4.07;;;;;;;13.89;100.00;101286.06;5074627;28;20955;-72
2022/09/12 07:00:49;;;;;;;10.27;5.43;;;;;;;13.91;100.00;101289.31;5074939;28;20461;-72
2022/09/12 07:03:15;;;;;;;9.10;4.30;;;;;;;13.96;100.00;101285.66;5075106;28;20442;-72
2022/09/12 07:05:42;;;;;;;6.50;3.57;;;;;;;14.04;100.00;101287.66;5074849;28;20441;-69
2022/09/12 07:08:08;;;;;;;8.80;3.90;;;;;;;14.12;100.00;101282.28;5074842;28;20543;-73
2022/09/12 07:10:34;;;;;;;8.00;3.77;;;;;;;14.22;100.00;101285.91;5075088;28;20445;-73
2022/09/12 07:13:01;;;;;;;7.23;3.80;;;;;;;14.24;100.00;101289.91;5074240;28;20905;-70
2022/09/12 07:15:27;;;;;;;8.27;4.57;;;;;;;14.31;100.00;101284.03;5074904;28;20484;-71
2022/09/12 07:17:55;;;;;;;8.10;3.53;;;;;;;14.32;100.00;101291.09;5074590;28;20437;-71
2022/09/12 07:20:22;;;;;;;7.10;3.80;;;;;;;14.39;100.00;101286.03;5074207;28;20874;-72
2022/09/12 07:22:48;;;;;;;8.23;3.93;;;;;;;14.53;100.00;101289.53;5074540;28;20445;-71
2022/09/12 07:25:14;;;;;;;10.60;4.07;;;;;;;14.59;100.00;101284.75;5074391;28;20524;-72
2022/09/12 07:27:42;;;;;;;11.23;4.03;;;;;;;14.62;100.00;101284.13;5074154;28;20495;-71
2022/09/12 07:30:09;;;;;;;9.63;3.40;;;;;;;14.74;100.00;101292.56;5074561;28;20506;-71
2022/09/12 07:32:35;;;;;;;10.23;3.50;;;;;;;14.81;100.00;101292.91;5073860;28;20892;-72
2022/09/12 07:35:03;;;;;;;7.53;3.23;;;;;;;14.93;100.00;101294.25;5073945;28;20942;-71
2022/09/12 07:37:30;;;;;;;5.47;2.33;;;;;;;15.01;100.00;101288.06;5074183;28;20433;-71
2022/09/12 07:39:56;;;;;;;5.97;2.60;;;;;;;15.07;100.00;101290.31;5074156;28;20440;-71
2022/09/12 07:42:23;;;;;;;5.73;2.30;;;;;;;15.16;100.00;101282.16;5074055;28;20865;-72
2022/09/12 07:44:51;;;;;;;6.00;2.87;;;;;;;15.24;100.00;101289.59;5074053;28;20460;-72
2022/09/12 07:47:17;;;;;;;6.77;2.97;;;;;;;15.27;100.00;101288.97;5073919;28;20484;-71
2022/09/12 07:49:44;;;;;;;6.53;3.13;;;;;;;15.41;100.00;101293.50;5074227;28;20441;-71
2022/09/12 07:52:12;;;;;;;7.60;3.10;;;;;;;15.50;100.00;101280.69;5073861;28;20469;-72
2022/09/12 07:54:38;;;;;;;4.57;2.07;;;;;;;15.59;100.00;101284.25;5073843;28;20899;-72
2022/09/12 07:57:05;;;;;;;4.97;2.03;;;;;;;15.68;100.00;101290.56;5073942;28;20823;-71
2022/09/12 07:59:31;;;;;;;5.20;2.13;;;;;;;15.75;100.00;101292.81;5073798;28;20449;-71
2022/09/12 08:01:57;;;;;;;5.07;1.93;;;;;;;15.84;100.00;101296.38;5073691;28;20473;-72
2022/09/12 08:04:24;;;;;;;6.67;2.00;;;;;;;15.84;100.00;101293.63;5073677;28;20495;-72
2022/09/12 08:06:50;;;;;;;3.43;1.33;;;;;;;15.87;100.00;101293.81;5073602;28;20445;-71
2022/09/12 08:09:18;;;;;;;3.70;1.13;;;;;;;16.02;100.00;101297.19;5073346;28;21004;-72
2022/09/12 08:11:45;;;;;;;4.03;1.57;;;;;;;16.02;100.00;101295.25;5073139;28;21014;-71
2022/09/12 08:14:11;;;;;;;4.10;1.70;;;;;;;16.07;100.00;101300.59;5073501;28;20445;-72
2022/09/12 08:16:37;;;;;;;4.23;1.40;;;;;;;16.14;100.00;101300.91;5073099;28;20935;-72
2022/09/12 08:19:04;;;;;;;3.60;1.20;;;;;;;16.23;100.00;101303.63;5073533;28;20434;-71
2022/09/12 08:21:32;;;;;;;3.90;1.50;;;;;;;16.35;100.00;101306.53;5073065;28;20460;-71
2022/09/12 08:24:01;;;;;;;4.20;1.67;;;;;;;16.40;100.00;101300.09;5073128;28;20446;-72
2022/09/12 08:26:30;;;;;;;4.73;1.10;;;;;;;16.50;100.00;101302.50;5073208;28;20510;-71
2022/09/12 08:28:56;;;;;;;3.90;1.27;;;;;;;16.62;100.00;101302.66;5073375;28;20491;-71
2022/09/12 08:31:25;;;;;;;3.80;1.10;;;;;;;16.70;99.12;101303.78;5073230;28;20472;-71
2022/09/12 08:33:55;;;;;;;3.43;1.10;;;;;;;16.73;96.99;101291.41;5073382;28;20442;-73
2022/09/12 08:36:23;;;;;;;4.20;1.20;;;;;;;16.88;97.26;101297.16;5073422;28;20437;-74
2022/09/12 08:38:51;;;;;;;3.43;1.30;;;;;;;16.93;97.24;101300.84;5073516;28;20830;-71
2022/09/12 08:41:27;;;;;;;4.13;1.27;;;;;;;16.99;95.37;101305.00;5073119;28;20863;-72
2022/09/12 08:44:11;;;;;;;3.70;1.20;;;;;;;16.99;94.15;101296.81;5072927;28;20898;-72
2022/09/12 08:46:48;;;;;;;4.17;1.30;;;;;;;17.07;91.54;101296.78;5073055;28;20960;-72
2022/09/12 08:49:25;;;;;;;3.77;1.00;;;;;;;17.12;90.33;101295.78;5073107;28;20461;-72
2022/09/12 08:51:52;;;;;;;3.57;0.90;;;;;;;17.10;87.39;101293.41;5073143;28;20461;-72
2022/09/12 08:54:23;;;;;;;6.83;0.80;;;;;;;17.25;88.27;101294.78;5072933;28;20910;-71
2022/09/12 08:56:52;;;;;;;3.30;0.80;;;;;;;17.26;87.66;101290.91;5073231;28;20856;-72
2022/09/12 08:59:20;;;;;;;3.73;0.93;;;;;;;17.37;87.72;101294.09;5072989;28;20789;-71
2022/09/12 09:01:52;;;;;;;4.50;1.00;;;;;;;17.46;86.45;101291.31;5073639;28;20491;-71
2022/09/12 09:04:30;;;;;;;3.50;0.80;;;;;;;17.52;85.92;101288.03;5072737;28;20520;-70
2022/09/12 09:07:07;;;;;;;3.63;1.10;;;;;;;17.63;86.07;101288.47;5072961;28;20484;-69
2022/09/12 09:09:46;;;;;;;3.10;0.93;;;;;;;17.70;85.05;101288.75;5072942;28;20455;-69
2022/09/12 09:12:20;;;;;;;3.20;1.03;;;;;;;17.60;81.01;101291.88;5072603;28;20480;-71
2022/09/12 09:15:12;;;;;;;3.47;1.10;;;;;;;17.71;82.34;101284.06;5072969;28;20425;-70
2022/09/12 09:17:42;;;;;;;3.57;1.07;;;;;;;17.79;83.69;101281.28;5072914;28;20903;-70
2022/09/12 09:20:17;;;;;;;3.17;0.90;;;;;;;17.81;84.65;101281.78;5073233;28;20449;-69
2022/09/12 09:22:49;;;;;;;3.90;1.23;;;;;;;17.79;83.84;101285.97;5072792;28;20429;-70
2022/09/12 09:25:21;;;;;;;3.20;1.00;;;;;;;17.90;84.11;101287.19;5072443;28;20902;-69
2022/09/12 09:27:53;;;;;;;5.80;0.70;;;;;;;17.98;86.02;101285.53;5072746;28;20472;-70
2022/09/12 09:30:21;;;;;;;3.00;0.77;;;;;;;18.02;83.57;101283.75;5072689;28;20444;-71
2022/09/12 09:32:51;;;;;;;3.43;1.03;;;;;;;18.15;82.13;101288.16;5072746;28;20799;-70
2022/09/12 09:35:26;;;;;;;2.90;0.70;;;;;;;18.22;80.57;101277.44;5072810;28;20433;-69
2022/09/12 09:38:01;;;;;;;3.10;0.80;;;;;;;18.35;80.28;101284.56;5075578;28;20482;-70
2022/09/12 09:40:38;;;;;;;3.27;1.00;;;;;;;18.34;80.71;101282.19;5076635;28;20429;-69
2022/09/12 09:43:15;;;;;;;3.20;0.87;;;;;;;18.41;80.58;101285.16;5076508;28;20510;-70
2022/09/12 09:45:43;;;;;;;3.67;1.17;;;;;;;18.45;81.13;101274.31;5076332;28;20429;-69
2022/09/12 09:48:18;;;;;;;3.83;0.80;;;;;;;18.49;79.11;101281.53;5075876;28;20476;-70
2022/09/12 09:50:47;;;;;;;3.87;1.33;;;;;;;18.39;82.12;101277.28;5075887;28;20977;-71
2022/09/12 09:53:25;;;;;;;3.63;1.10;;;;;;;18.39;79.24;101280.03;5075883;28;20444;-70
2022/09/12 09:55:53;;;;;;;3.07;0.90;;;;;;;18.51;79.25;101275.75;5076116;28;20562;-69
2022/09/12 09:58:30;;;;;;;3.10;0.70;;;;;;;18.62;76.58;101276.91;5076191;28;20498;-69
2022/09/12 10:01:02;;;;;;;2.90;0.80;;;;;;;18.76;77.06;101263.69;5075944;28;20482;-69
2022/09/12 10:03:34;;;;;;;2.90;0.80;;;;;;;18.79;76.25;101270.47;5076042;28;20445;-69
2022/09/12 10:06:02;;;;;;;3.23;0.97;;;;;;;18.92;75.20;101268.56;5075700;28;20425;-70
2022/09/12 10:08:31;;;;;;;3.93;1.17;;;;;;;19.01;76.33;101259.06;5075553;28;20477;-70
2022/09/12 10:11:02;;;;;;;3.13;0.70;;;;;;;19.05;77.65;101265.47;5075326;28;20985;-70
2022/09/12 10:13:39;;;;;;;3.30;0.67;;;;;;;19.00;80.12;101256.66;5075964;28;20464;-70
2022/09/12 10:16:19;;;;;;;3.93;1.00;;;;;;;19.19;79.29;101267.09;5075870;28;20887;-70
2022/09/12 10:18:45;;;;;;;4.40;1.47;;;;;;;19.11;76.01;101266.03;5075981;28;20430;-70
2022/09/12 10:21:15;;;;;;;3.33;0.93;;;;;;;19.18;76.15;101266.28;5075270;28;20990;-71
2022/09/12 10:23:42;;;;;;;4.37;1.10;;;;;;;19.27;77.07;101263.44;5075603;28;20846;-70
2022/09/12 10:26:10;;;;;;;3.70;1.20;;;;;;;19.35;78.93;101268.81;5075464;28;20446;-69
2022/09/12 10:28:39;;;;;;;3.47;0.80;;;;;;;19.42;76.85;101268.22;5075673;28;20503;-69
2022/09/12 10:31:10;;;;;;;2.90;0.80;;;;;;;19.50;76.31;101263.75;5075199;28;20464;-70
2022/09/12 10:33:43;;;;;;;3.73;1.27;;;;;;;19.59;75.75;101267.19;5075611;28;20479;-69
2022/09/12 10:36:10;;;;;;;3.07;0.90;;;;;;;19.68;72.49;101259.66;5075470;28;20475;-71
2022/09/12 10:38:37;;;;;;;2.80;0.70;;;;;;;19.83;72.12;101260.88;5075504;28;20445;-69
2022/09/12 10:41:06;;;;;;;3.30;0.80;;;;;;;19.97;72.78;101257.75;5075363;28;20470;-69
2022/09/12 10:43:36;;;;;;;2.93;0.80;;;;;;;20.20;72.54;101258.81;5075295;28;20450;-69
2022/09/12 10:46:23;;;;;;;3.40;1.07;;;;;;;20.44;68.61;101263.41;5075253;28;20437;-70
2022/09/12 10:48:51;;;;;;;2.77;0.63;;;;;;;20.62;62.94;101258.41;5074352;28;20970;-70
2022/09/12 10:51:27;;;;;;;3.70;1.00;;;;;;;20.79;59.56;101260.03;5075052;28;20496;-69
2022/09/12 10:53:56;;;;;;;4.27;0.87;;;;;;;20.92;58.42;101261.56;5075193;28;20468;-70
2022/09/12 10:56:26;;;;;;;2.90;0.70;;;;;;;21.04;56.66;101263.44;5075079;28;20488;-71
2022/09/12 10:59:10;;;;;;;3.83;0.80;;;;;;;21.23;58.97;101266.28;5075097;28;20430;-69
2022/09/12 11:01:41;;;;;;;3.27;0.70;;;;;;;21.28;58.95;101262.44;5074869;28;20466;-69
2022/09/12 11:04:41;;;;;;;3.17;0.67;;;;;;;21.36;60.85;101261.47;5075203;28;20462;-71
2022/09/12 11:07:25;;;;;;;3.10;0.70;;;;;;;21.35;58.53;101252.41;5074681;28;20914;-70
2022/09/12 11:09:59;;;;;;;4.60;1.20;;;;;;;21.40;58.25;101260.41;5074754;28;20536;-70
2022/09/12 11:12:35;;;;;;;3.60;1.10;;;;;;;21.44;57.90;101254.19;5074620;28;20477;-71
2022/09/12 11:15:16;;;;;;;3.07;0.60;;;;;;;21.69;58.62;101252.78;5074751;28;20425;-70
2022/09/12 11:17:54;;;;;;;3.30;0.80;;;;;;;22.60;56.58;101255.06;5074889;28;20429;-70
2022/09/12 11:20:49;;;;;;;3.80;0.93;;;;;;;23.59;53.46;101262.59;5074579;28;20471;-72
2022/09/12 11:23:43;;;;;;;3.23;0.80;;;;;;;24.40;50.99;101260.16;5071130;28;20454;-70
2022/09/12 11:26:24;;;;;;;3.10;0.60;;;;;;;24.55;49.85;101261.09;5074489;28;20425;-72
2022/09/12 11:29:00;;;;;;;4.73;0.90;;;;;;;24.90;48.26;101259.84;5074375;28;20467;-71
2022/09/12 11:31:47;;;;;;;3.57;1.00;;;;;;;25.61;47.47;101262.38;5073966;28;21047;-73
2022/09/12 11:34:22;;;;;;;2.90;0.70;;;;;;;26.42;46.22;101261.94;5074238;28;20433;-71